sensor_id;sensor_type;location;lat;lon;timestamp;pressure;altitude;pressure_sealevel;temperature;humidity
13314;BME280;6725;48.112;11.604;2023-02-17T00:01:55;96180.91;;;9.68;92.35
13314;BME280;6725;48.112;11.604;2023-02-17T00:04:20;96172.31;;;9.66;93.07
13314;BME280;6725;48.112;11.604;2023-02-17T00:06:46;96178.09;;;9.58;93.16
13314;BME280;6725;48.112;11.604;2023-02-17T00:09:11;96173.41;;;9.58;94.14
13314;BME280;6725;48.112;11.604;2023-02-17T00:11:36;96171.84;;;9.57;93.90
13314;BME280;6725;48.112;11.604;2023-02-17T00:14:02;96177.25;;;9.54;94.43
13314;BME280;6725;48.112;11.604;2023-02-17T00:16:28;96180.78;;;9.54;94.26
13314;BME280;6725;48.112;11.604;2023-02-17T00:18:56;96178.81;;;9.51;93.89
13314;BME280;6725;48.112;11.604;2023-02-17T00:21:25;96178.81;;;9.51;94.42
13314;BME280;6725;48.112;11.604;2023-02-17T00:23:51;96177.25;;;9.50;94.65
13314;BME280;6725;48.112;11.604;2023-02-17T00:26:17;96176.06;;;9.51;93.69
13314;BME280;6725;48.112;11.604;2023-02-17T00:28:43;96176.44;;;9.46;94.78
13314;BME280;6725;48.112;11.604;2023-02-17T00:31:12;96174.09;;;9.45;94.28
13314;BME280;6725;48.112;11.604;2023-02-17T00:33:38;96174.84;;;9.42;94.79
13314;BME280;6725;48.112;11.604;2023-02-17T00:36:11;96173.28;;;9.41;95.14
13314;BME280;6725;48.112;11.604;2023-02-17T00:38:37;96173.22;;;9.37;95.52
13314;BME280;6725;48.112;11.604;2023-02-17T00:41:02;96172.41;;;9.33;95.76
13314;BME280;6725;48.112;11.604;2023-02-17T00:43:28;96173.56;;;9.32;96.15
13314;BME280;6725;48.112;11.604;2023-02-17T00:45:53;96178.63;;;9.30;95.85
13314;BME280;6725;48.112;11.604;2023-02-17T00:48:19;96173.94;;;9.27;95.98
13314;BME280;6725;48.112;11.604;2023-02-17T00:50:45;96179.38;;;9.27;96.50
13314;BME280;6725;48.112;11.604;2023-02-17T00:53:10;96174.25;;;9.22;96.80
13314;BME280;6725;48.112;11.604;2023-02-17T00:55:36;96173.13;;;9.23;96.78
13314;BME280;6725;48.112;11.604;2023-02-17T00:58:01;96173.13;;;9.23;96.91
13314;BME280;6725;48.112;11.604;2023-02-17T01:00:27;96169.19;;;9.21;97.65
13314;BME280;6725;48.112;11.604;2023-02-17T01:02:52;96173.06;;;9.20;97.29
13314;BME280;6725;48.112;11.604;2023-02-17T01:05:17;96173.88;;;9.20;98.14
13314;BME280;6725;48.112;11.604;2023-02-17T01:07:43;96171.09;;;9.17;97.85
13314;BME280;6725;48.112;11.604;2023-02-17T01:10:08;96169.16;;;9.17;97.94
13314;BME280;6725;48.112;11.604;2023-02-17T01:12:34;96171.09;;;9.17;98.19
13314;BME280;6725;48.112;11.604;2023-02-17T01:15:00;96173.00;;;9.13;98.64
13314;BME280;6725;48.112;11.604;2023-02-17T01:17:25;96164.38;;;9.07;99.44
13314;BME280;6725;48.112;11.604;2023-02-17T01:19:51;96171.72;;;9.03;99.74
13314;BME280;6725;48.112;11.604;2023-02-17T01:22:16;96170.53;;;9.01;100.00
13314;BME280;6725;48.112;11.604;2023-02-17T01:24:41;96177.84;;;8.93;100.00
13314;BME280;6725;48.112;11.604;2023-02-17T01:27:07;96166.50;;;8.88;100.00
13314;BME280;6725;48.112;11.604;2023-02-17T01:29:32;96164.88;;;8.80;100.00
13314;BME280;6725;48.112;11.604;2023-02-17T01:31:58;96157.03;;;8.75;100.00
13314;BME280;6725;48.112;11.604;2023-02-17T01:34:23;96160.88;;;8.70;100.00
13314;BME280;6725;48.112;11.604;2023-02-17T01:36:48;96159.25;;;8.66;100.00
13314;BME280;6725;48.112;11.604;2023-02-17T01:39:14;96160.75;;;8.60;100.00
13314;BME280;6725;48.112;11.604;2023-02-17T01:41:40;96159.88;;;8.52;100.00
13314;BME280;6725;48.112;11.604;2023-02-17T01:46:38;96152.78;;;8.44;100.00
13314;BME280;6725;48.112;11.604;2023-02-17T01:49:13;96148.09;;;8.41;100.00
13314;BME280;6725;48.112;11.604;2023-02-17T01:51:39;96148.50;;;8.43;100.00
13314;BME280;6725;48.112;11.604;2023-02-17T01:54:11;96153.25;;;8.50;100.00
13314;BME280;6725;48.112;11.604;2023-02-17T01:56:40;96155.25;;;8.56;100.00
13314;BME280;6725;48.112;11.604;2023-02-17T01:59:10;96154.53;;;8.59;100.00
13314;BME280;6725;48.112;11.604;2023-02-17T02:01:37;96140.53;;;8.61;100.00
13314;BME280;6725;48.112;11.604;2023-02-17T02:04:04;96146.41;;;8.63;100.00
13314;BME280;6725;48.112;11.604;2023-02-17T02:06:32;96150.69;;;8.64;100.00
13314;BME280;6725;48.112;11.604;2023-02-17T02:09:06;96144.50;;;8.67;100.00
13314;BME280;6725;48.112;11.604;2023-02-17T02:11:34;96140.25;;;8.69;100.00
13314;BME280;6725;48.112;11.604;2023-02-17T02:14:00;96142.25;;;8.72;100.00
13314;BME280;6725;48.112;11.604;2023-02-17T02:16:36;96143.88;;;8.80;100.00
13314;BME280;6725;48.112;11.604;2023-02-17T02:29:51;96139.53;;;9.12;100.00
13314;BME280;6725;48.112;11.604;2023-02-17T02:37:51;96144.69;;;9.24;100.00
13314;BME280;6725;48.112;11.604;2023-02-17T02:40:21;96146.69;;;9.27;100.00
13314;BME280;6725;48.112;11.604;2023-02-17T02:42:48;96156.47;;;9.35;100.00
13314;BME280;6725;48.112;11.604;2023-02-17T02:45:16;96155.31;;;9.36;100.00
13314;BME280;6725;48.112;11.604;2023-02-17T02:47:53;96157.66;;;9.38;100.00
13314;BME280;6725;48.112;11.604;2023-02-17T02:52:58;96154.63;;;9.46;100.00
13314;BME280;6725;48.112;11.604;2023-02-17T02:58:25;96149.56;;;9.48;100.00
13314;BME280;6725;48.112;11.604;2023-02-17T03:01:00;96144.53;;;9.50;100.00
13314;BME280;6725;48.112;11.604;2023-02-17T03:03:39;96137.91;;;9.51;100.00
13314;BME280;6725;48.112;11.604;2023-02-17T03:06:14;96139.88;;;9.54;100.00
13314;BME280;6725;48.112;11.604;2023-02-17T03:08:47;96135.22;;;9.55;100.00
13314;BME280;6725;48.112;11.604;2023-02-17T03:11:16;96135.25;;;9.58;100.00
13314;BME280;6725;48.112;11.604;2023-02-17T03:14:03;96133.69;;;9.61;100.00
13314;BME280;6725;48.112;11.604;2023-02-17T03:16:29;96124.00;;;9.63;100.00
13314;BME280;6725;48.112;11.604;2023-02-17T03:18:55;96123.63;;;9.68;99.82
13314;BME280;6725;48.112;11.604;2023-02-17T03:21:21;96116.63;;;9.67;100.00
13314;BME280;6725;48.112;11.604;2023-02-17T03:23:46;96125.59;;;9.71;100.00
13314;BME280;6725;48.112;11.604;2023-02-17T03:26:11;96113.53;;;9.72;99.11
13314;BME280;6725;48.112;11.604;2023-02-17T03:28:37;96119.41;;;9.74;98.92
13314;BME280;6725;48.112;11.604;2023-02-17T03:31:02;96119.78;;;9.76;98.40
13314;BME280;6725;48.112;11.604;2023-02-17T03:33:27;96121.34;;;9.77;98.80
13314;BME280;6725;48.112;11.604;2023-02-17T03:35:53;96113.53;;;9.76;98.62
13314;BME280;6725;48.112;11.604;2023-02-17T03:38:18;96106.56;;;9.78;98.04
13314;BME280;6725;48.112;11.604;2023-02-17T03:40:43;96105.78;;;9.81;97.27
13314;BME280;6725;48.112;11.604;2023-02-17T03:43:09;96109.69;;;9.80;97.18
13314;BME280;6725;48.112;11.604;2023-02-17T03:45:35;96117.53;;;9.85;96.07
13314;BME280;6725;48.112;11.604;2023-02-17T03:48:01;96113.63;;;9.86;95.73
13314;BME280;6725;48.112;11.604;2023-02-17T03:50:27;96100.00;;;9.86;95.96
13314;BME280;6725;48.112;11.604;2023-02-17T03:52:52;96106.22;;;9.87;96.04
13314;BME280;6725;48.112;11.604;2023-02-17T03:55:17;96103.47;;;9.87;95.10
13314;BME280;6725;48.112;11.604;2023-02-17T03:57:43;96110.16;;;9.89;95.53
13314;BME280;6725;48.112;11.604;2023-02-17T04:00:08;96113.66;;;9.93;94.05
13314;BME280;6725;48.112;11.604;2023-02-17T04:02:34;96105.09;;;9.95;93.91
13314;BME280;6725;48.112;11.604;2023-02-17T04:04:59;96104.31;;;9.94;94.11
13314;BME280;6725;48.112;11.604;2023-02-17T04:07:25;96105.50;;;9.97;93.46
13314;BME280;6725;48.112;11.604;2023-02-17T04:09:50;96105.13;;;9.98;93.11
13314;BME280;6725;48.112;11.604;2023-02-17T04:12:15;96109.03;;;10.01;93.17
13314;BME280;6725;48.112;11.604;2023-02-17T04:14:41;96101.63;;;10.01;93.24
13314;BME280;6725;48.112;11.604;2023-02-17T04:17:06;96108.66;;;10.02;92.48
13314;BME280;6725;48.112;11.604;2023-02-17T04:19:31;96096.94;;;9.98;93.26
13314;BME280;6725;48.112;11.604;2023-02-17T04:21:57;96092.66;;;10.01;92.67
13314;BME280;6725;48.112;11.604;2023-02-17T04:24:22;96098.53;;;10.03;93.32
13314;BME280;6725;48.112;11.604;2023-02-17T04:26:47;96097.78;;;10.06;92.68
13314;BME280;6725;48.112;11.604;2023-02-17T04:29:13;96086.13;;;10.13;92.38
13314;BME280;6725;48.112;11.604;2023-02-17T04:31:38;96090.41;;;10.13;91.82
13314;BME280;6725;48.112;11.604;2023-02-17T04:34:03;96080.28;;;10.18;91.59
13314;BME280;6725;48.112;11.604;2023-02-17T04:36:29;96094.31;;;10.16;91.23
13314;BME280;6725;48.112;11.604;2023-02-17T04:38:54;96090.44;;;10.21;91.55
13314;BME280;6725;48.112;11.604;2023-02-17T04:41:20;96089.28;;;10.22;91.04
13314;BME280;6725;48.112;11.604;2023-02-17T04:43:45;96095.13;;;10.24;90.32
13314;BME280;6725;48.112;11.604;2023-02-17T04:46:10;96076.81;;;10.24;90.77
13314;BME280;6725;48.112;11.604;2023-02-17T04:48:36;96085.03;;;10.31;89.52
13314;BME280;6725;48.112;11.604;2023-02-17T04:51:02;96074.88;;;10.32;89.04
13314;BME280;6725;48.112;11.604;2023-02-17T04:53:27;96080.00;;;10.40;88.57
13314;BME280;6725;48.112;11.604;2023-02-17T04:55:52;96080.00;;;10.44;88.47
13314;BME280;6725;48.112;11.604;2023-02-17T04:58:18;96076.16;;;10.52;87.51
13314;BME280;6725;48.112;11.604;2023-02-17T05:00:48;96073.00;;;10.50;87.28
13314;BME280;6725;48.112;11.604;2023-02-17T05:03:15;96065.22;;;10.52;87.25
13314;BME280;6725;48.112;11.604;2023-02-17T05:05:40;96062.09;;;10.50;87.07
13314;BME280;6725;48.112;11.604;2023-02-17T05:08:06;96064.03;;;10.53;87.75
13314;BME280;6725;48.112;11.604;2023-02-17T05:10:31;96063.28;;;10.56;86.67
13314;BME280;6725;48.112;11.604;2023-02-17T05:12:56;96057.78;;;10.49;86.94
13314;BME280;6725;48.112;11.604;2023-02-17T05:15:24;96057.03;;;10.52;87.58
13314;BME280;6725;48.112;11.604;2023-02-17T05:17:49;96044.53;;;10.47;88.48
13314;BME280;6725;48.112;11.604;2023-02-17T05:20:15;96049.97;;;10.51;88.07
13314;BME280;6725;48.112;11.604;2023-02-17T05:22:40;96060.13;;;10.54;87.75
13314;BME280;6725;48.112;11.604;2023-02-17T05:25:06;96051.56;;;10.52;88.53
13314;BME280;6725;48.112;11.604;2023-02-17T05:27:32;96055.44;;;10.51;88.82
13314;BME280;6725;48.112;11.604;2023-02-17T05:29:57;96047.25;;;10.51;89.06
13314;BME280;6725;48.112;11.604;2023-02-17T05:32:23;96051.56;;;10.52;89.76
13314;BME280;6725;48.112;11.604;2023-02-17T05:34:48;96047.28;;;10.54;89.54
13314;BME280;6725;48.112;11.604;2023-02-17T05:37:14;96048.44;;;10.57;89.19
13314;BME280;6725;48.112;11.604;2023-02-17T05:39:39;96054.69;;;10.54;89.91
13314;BME280;6725;48.112;11.604;2023-02-17T05:42:04;96057.06;;;10.59;88.98
13314;BME280;6725;48.112;11.604;2023-02-17T05:44:30;96060.16;;;10.61;89.04
13314;BME280;6725;48.112;11.604;2023-02-17T05:46:55;96050.00;;;10.58;88.92
13314;BME280;6725;48.112;11.604;2023-02-17T05:49:21;96060.16;;;10.61;89.04
13314;BME280;6725;48.112;11.604;2023-02-17T05:51:46;96060.16;;;10.61;88.68
13314;BME280;6725;48.112;11.604;2023-02-17T05:54:11;96058.59;;;10.56;89.29
13314;BME280;6725;48.112;11.604;2023-02-17T05:56:37;96059.38;;;10.53;88.83
13314;BME280;6725;48.112;11.604;2023-02-17T05:59:06;96055.47;;;10.54;88.65
13314;BME280;6725;48.112;11.604;2023-02-17T06:01:31;96055.88;;;10.60;87.88
13314;BME280;6725;48.112;11.604;2023-02-17T06:03:56;96066.00;;;10.59;87.53
13314;BME280;6725;48.112;11.604;2023-02-17T06:06:22;96061.69;;;10.55;87.41
13314;BME280;6725;48.112;11.604;2023-02-17T06:08:48;96057.81;;;10.56;88.13
13314;BME280;6725;48.112;11.604;2023-02-17T06:11:13;96064.06;;;10.60;88.01
13314;BME280;6725;48.112;11.604;2023-02-17T06:13:42;96064.84;;;10.60;87.93
13314;BME280;6725;48.112;11.604;2023-02-17T06:16:07;96063.31;;;10.63;88.31
13314;BME280;6725;48.112;11.604;2023-02-17T06:18:33;96070.69;;;10.55;88.42
13314;BME280;6725;48.112;11.604;2023-02-17T06:20:59;96062.09;;;10.57;90.11
13314;BME280;6725;48.112;11.604;2023-02-17T06:23:25;96067.56;;;10.57;90.29
13314;BME280;6725;48.112;11.604;2023-02-17T06:25:52;96079.28;;;10.61;90.14
13314;BME280;6725;48.112;11.604;2023-02-17T06:28:17;96072.28;;;10.67;89.89
13314;BME280;6725;48.112;11.604;2023-02-17T06:30:42;96084.38;;;10.73;90.31
13314;BME280;6725;48.112;11.604;2023-02-17T06:33:08;96081.25;;;10.74;90.44
13314;BME280;6725;48.112;11.604;2023-02-17T06:35:33;96081.66;;;10.73;95.86
13314;BME280;6725;48.112;11.604;2023-02-17T06:37:58;96084.34;;;10.66;100.00
13314;BME280;6725;48.112;11.604;2023-02-17T06:40:24;96089.03;;;10.58;100.00
13314;BME280;6725;48.112;11.604;2023-02-17T06:42:49;96080.44;;;10.56;100.00
13314;BME280;6725;48.112;11.604;2023-02-17T06:45:15;96090.19;;;10.54;100.00
13314;BME280;6725;48.112;11.604;2023-02-17T06:47:40;96085.88;;;10.49;100.00
13314;BME280;6725;48.112;11.604;2023-02-17T06:50:06;96081.19;;;10.50;100.00
13314;BME280;6725;48.112;11.604;2023-02-17T06:52:31;96074.94;;;10.49;100.00
13314;BME280;6725;48.112;11.604;2023-02-17T06:54:57;96089.81;;;10.52;100.00
13314;BME280;6725;48.112;11.604;2023-02-17T06:57:22;96075.75;;;10.57;100.00
13314;BME280;6725;48.112;11.604;2023-02-17T06:59:48;96078.09;;;10.62;100.00
13314;BME280;6725;48.112;11.604;2023-02-17T07:02:13;96082.03;;;10.68;100.00
13314;BME280;6725;48.112;11.604;2023-02-17T07:04:42;96082.44;;;10.70;100.00
13314;BME280;6725;48.112;11.604;2023-02-17T07:07:08;96076.19;;;10.80;100.00
13314;BME280;6725;48.112;11.604;2023-02-17T07:09:34;96078.16;;;10.93;100.00
13314;BME280;6725;48.112;11.604;2023-02-17T07:12:00;96074.69;;;11.00;100.00
13314;BME280;6725;48.112;11.604;2023-02-17T07:14:26;96076.63;;;11.06;100.00
13314;BME280;6725;48.112;11.604;2023-02-17T07:16:52;96070.00;;;11.11;100.00
13314;BME280;6725;48.112;11.604;2023-02-17T07:19:18;96065.69;;;11.31;100.00
13314;BME280;6725;48.112;11.604;2023-02-17T07:21:43;96063.38;;;11.40;100.00
13314;BME280;6725;48.112;11.604;2023-02-17T07:24:10;96058.69;;;11.51;100.00
13314;BME280;6725;48.112;11.604;2023-02-17T07:26:37;96066.44;;;11.98;100.00
13314;BME280;6725;48.112;11.604;2023-02-17T07:29:03;96063.88;;;12.49;100.00
13314;BME280;6725;48.112;11.604;2023-02-17T07:31:30;96070.00;;;12.74;100.00
13314;BME280;6725;48.112;11.604;2023-02-17T07:33:55;96066.88;;;12.75;100.00
13314;BME280;6725;48.112;11.604;2023-02-17T07:36:21;96084.09;;;12.76;100.00
13314;BME280;6725;48.112;11.604;2023-02-17T07:38:47;96068.53;;;12.59;100.00
13314;BME280;6725;48.112;11.604;2023-02-17T07:41:18;96074.78;;;12.56;100.00
13314;BME280;6725;48.112;11.604;2023-02-17T07:43:44;96065.81;;;12.55;100.00
13314;BME280;6725;48.112;11.604;2023-02-17T07:46:10;96074.75;;;12.66;100.00
13314;BME280;6725;48.112;11.604;2023-02-17T07:48:36;96075.53;;;12.67;100.00
13314;BME280;6725;48.112;11.604;2023-02-17T07:51:06;96084.88;;;12.76;100.00
13314;BME280;6725;48.112;11.604;2023-02-17T07:53:32;96073.94;;;12.73;100.00
13314;BME280;6725;48.112;11.604;2023-02-17T07:55:58;96076.75;;;12.62;100.00
13314;BME280;6725;48.112;11.604;2023-02-17T07:58:23;96069.31;;;12.56;100.00
13314;BME280;6725;48.112;11.604;2023-02-17T08:00:49;96090.09;;;12.50;100.00
13314;BME280;6725;48.112;11.604;2023-02-17T08:03:14;96074.03;;;12.52;100.00
13314;BME280;6725;48.112;11.604;2023-02-17T08:05:40;96086.59;;;12.46;100.00
13314;BME280;6725;48.112;11.604;2023-02-17T08:08:08;96089.31;;;12.53;100.00
13314;BME280;6725;48.112;11.604;2023-02-17T08:10:52;96088.50;;;12.56;100.00
13314;BME280;6725;48.112;11.604;2023-02-17T08:13:36;96086.56;;;12.49;100.00
13314;BME280;6725;48.112;11.604;2023-02-17T08:16:02;96083.47;;;12.47;100.00
13314;BME280;6725;48.112;11.604;2023-02-17T08:18:27;96078.00;;;12.44;100.00
13314;BME280;6725;48.112;11.604;2023-02-17T08:20:52;96078.75;;;12.48;100.00
13314;BME280;6725;48.112;11.604;2023-02-17T08:23:21;96078.78;;;12.41;100.00
13314;BME280;6725;48.112;11.604;2023-02-17T08:25:46;96088.56;;;12.45;100.00
13314;BME280;6725;48.112;11.604;2023-02-17T08:28:12;96089.72;;;12.48;100.00
13314;BME280;6725;48.112;11.604;2023-02-17T08:30:38;96078.25;;;12.67;100.00
13314;BME280;6725;48.112;11.604;2023-02-17T08:33:04;96093.94;;;12.63;100.00
13314;BME280;6725;48.112;11.604;2023-02-17T08:35:30;96088.06;;;12.68;100.00
13314;BME280;6725;48.112;11.604;2023-02-17T08:37:55;96089.63;;;12.69;100.00
13314;BME280;6725;48.112;11.604;2023-02-17T08:40:21;96088.00;;;12.82;100.00
13314;BME280;6725;48.112;11.604;2023-02-17T08:42:46;96082.56;;;12.75;100.00
13314;BME280;6725;48.112;11.604;2023-02-17T08:45:13;96081.28;;;12.86;100.00
13314;BME280;6725;48.112;11.604;2023-02-17T08:47:39;96084.88;;;12.80;100.00
13314;BME280;6725;48.112;11.604;2023-02-17T08:50:05;96091.81;;;12.95;100.00
13314;BME280;6725;48.112;11.604;2023-02-17T08:52:33;96091.00;;;13.05;100.00
13314;BME280;6725;48.112;11.604;2023-02-17T08:54:58;96096.50;;;13.05;100.00
13314;BME280;6725;48.112;11.604;2023-02-17T08:57:24;96092.63;;;12.92;100.00
13314;BME280;6725;48.112;11.604;2023-02-17T08:59:51;96102.81;;;12.98;100.00
13314;BME280;6725;48.112;11.604;2023-02-17T09:02:16;96095.34;;;12.99;100.00
13314;BME280;6725;48.112;11.604;2023-02-17T09:04:42;96108.28;;;12.95;100.00
13314;BME280;6725;48.112;11.604;2023-02-17T09:07:10;96096.16;;;12.92;100.00
13314;BME280;6725;48.112;11.604;2023-02-17T09:09:36;96099.66;;;12.96;100.00
13314;BME280;6725;48.112;11.604;2023-02-17T09:12:01;96108.25;;;13.02;100.00
13314;BME280;6725;48.112;11.604;2023-02-17T09:14:27;96104.34;;;12.96;100.00
13314;BME280;6725;48.112;11.604;2023-02-17T09:16:53;96121.25;;;12.84;100.00
13314;BME280;6725;48.112;11.604;2023-02-17T09:19:19;96107.59;;;12.77;100.00
13314;BME280;6725;48.112;11.604;2023-02-17T09:21:45;96109.16;;;12.71;100.00
13314;BME280;6725;48.112;11.604;2023-02-17T09:24:10;96098.41;;;12.29;100.00
13314;BME280;6725;48.112;11.604;2023-02-17T09:26:36;96110.16;;;12.29;100.00
13314;BME280;6725;48.112;11.604;2023-02-17T09:29:02;96114.84;;;12.29;100.00
13314;BME280;6725;48.112;11.604;2023-02-17T09:31:29;96112.47;;;12.34;100.00
13314;BME280;6725;48.112;11.604;2023-02-17T09:33:55;96120.22;;;12.53;100.00
13314;BME280;6725;48.112;11.604;2023-02-17T09:36:23;96113.97;;;12.53;100.00
13314;BME280;6725;48.112;11.604;2023-02-17T09:38:49;96104.47;;;12.75;100.00
13314;BME280;6725;48.112;11.604;2023-02-17T09:41:25;96115.75;;;12.91;100.00
13314;BME280;6725;48.112;11.604;2023-02-17T09:43:52;96120.78;;;13.03;100.00
13314;BME280;6725;48.112;11.604;2023-02-17T09:48:49;96110.22;;;13.05;100.00
13314;BME280;6725;48.112;11.604;2023-02-17T09:51:30;96108.97;;;13.13;100.00
13314;BME280;6725;48.112;11.604;2023-02-17T09:54:05;96120.63;;;13.31;100.00
13314;BME280;6725;48.112;11.604;2023-02-17T09:56:38;96119.81;;;13.34;100.00
13314;BME280;6725;48.112;11.604;2023-02-17T09:59:10;96111.09;;;13.46;100.00
13314;BME280;6725;48.112;11.604;2023-02-17T10:01:39;96121.00;;;13.77;100.00
13314;BME280;6725;48.112;11.604;2023-02-17T10:04:15;96113.78;;;13.97;100.00
13314;BME280;6725;48.112;11.604;2023-02-17T10:06:45;96125.91;;;14.00;100.00
13314;BME280;6725;48.112;11.604;2023-02-17T10:12:11;96106.81;;;13.89;100.00
13314;BME280;6725;48.112;11.604;2023-02-17T10:14:54;96105.38;;;13.74;100.00
13314;BME280;6725;48.112;11.604;2023-02-17T10:20:08;96107.13;;;14.35;100.00
13314;BME280;6725;48.112;11.604;2023-02-17T10:22:35;96109.63;;;14.86;100.00
13314;BME280;6725;48.112;11.604;2023-02-17T10:25:03;96094.88;;;15.03;100.00
13314;BME280;6725;48.112;11.604;2023-02-17T10:30:36;96106.72;;;15.27;100.00
13314;BME280;6725;48.112;11.604;2023-02-17T10:36:10;96105.97;;;14.96;100.00
13314;BME280;6725;48.112;11.604;2023-02-17T10:38:55;96099.47;;;14.83;100.00
13314;BME280;6725;48.112;11.604;2023-02-17T10:41:26;96106.34;;;14.98;100.00
13314;BME280;6725;48.112;11.604;2023-02-17T10:43:57;96086.78;;;15.19;100.00
13314;BME280;6725;48.112;11.604;2023-02-17T10:46:27;96085.25;;;15.68;100.00
13314;BME280;6725;48.112;11.604;2023-02-17T10:48:54;96095.00;;;15.72;100.00
13314;BME280;6725;48.112;11.604;2023-02-17T10:51:24;96089.50;;;15.95;100.00
13314;BME280;6725;48.112;11.604;2023-02-17T10:53:55;96091.00;;;15.77;100.00
13314;BME280;6725;48.112;11.604;2023-02-17T10:56:27;96098.91;;;15.75;100.00
13314;BME280;6725;48.112;11.604;2023-02-17T10:59:02;96089.19;;;16.32;100.00
13314;BME280;6725;48.112;11.604;2023-02-17T11:01:31;96074.88;;;17.32;96.50
13314;BME280;6725;48.112;11.604;2023-02-17T11:04:05;96081.59;;;17.82;89.71
13314;BME280;6725;48.112;11.604;2023-02-17T11:06:31;96081.09;;;18.16;85.33
13314;BME280;6725;48.112;11.604;2023-02-17T11:09:04;96092.53;;;18.75;80.44
13314;BME280;6725;48.112;11.604;2023-02-17T11:11:34;96075.75;;;18.09;82.48
13314;BME280;6725;48.112;11.604;2023-02-17T11:14:11;96080.38;;;18.44;82.46
13314;BME280;6725;48.112;11.604;2023-02-17T11:22:58;96067.75;;;16.43;93.26
13314;BME280;6725;48.112;11.604;2023-02-17T11:25:29;96064.31;;;16.16;96.40
13314;BME280;6725;48.112;11.604;2023-02-17T11:28:05;96070.44;;;16.24;97.13
13314;BME280;6725;48.112;11.604;2023-02-17T11:30:33;96064.03;;;16.30;96.52
13314;BME280;6725;48.112;11.604;2023-02-17T11:33:10;96069.16;;;16.09;97.39
13314;BME280;6725;48.112;11.604;2023-02-17T11:38:09;96069.38;;;15.98;99.66
13314;BME280;6725;48.112;11.604;2023-02-17T11:40:34;96058.44;;;16.14;98.60
13314;BME280;6725;48.112;11.604;2023-02-17T11:43:02;96055.97;;;16.20;100.00
13314;BME280;6725;48.112;11.604;2023-02-17T11:45:39;96041.06;;;16.37;98.01
13314;BME280;6725;48.112;11.604;2023-02-17T11:50:58;96048.69;;;16.29;97.09
13314;BME280;6725;48.112;11.604;2023-02-17T11:56:21;96032.97;;;15.87;100.00
13314;BME280;6725;48.112;11.604;2023-02-17T12:04:32;96017.31;;;15.61;100.00
13314;BME280;6725;48.112;11.604;2023-02-17T12:10:02;96028.84;;;15.99;100.00
13314;BME280;6725;48.112;11.604;2023-02-17T12:12:42;96032.91;;;16.10;100.00
13314;BME280;6725;48.112;11.604;2023-02-17T12:21:11;96014.06;;;15.66;100.00
13314;BME280;6725;48.112;11.604;2023-02-17T12:32:05;96021.94;;;15.87;100.00
13314;BME280;6725;48.112;11.604;2023-02-17T12:34:41;96016.34;;;15.71;100.00
13314;BME280;6725;48.112;11.604;2023-02-17T12:37:21;96002.03;;;15.57;100.00
13314;BME280;6725;48.112;11.604;2023-02-17T12:39:53;95999.94;;;15.41;100.00
13314;BME280;6725;48.112;11.604;2023-02-17T12:42:31;96005.75;;;15.47;100.00
13314;BME280;6725;48.112;11.604;2023-02-17T12:45:03;96015.03;;;15.56;100.00
13314;BME280;6725;48.112;11.604;2023-02-17T12:47:56;96001.75;;;15.51;100.00
13314;BME280;6725;48.112;11.604;2023-02-17T12:50:28;96009.22;;;15.51;100.00
13314;BME280;6725;48.112;11.604;2023-02-17T12:52:59;96014.69;;;15.54;100.00
13314;BME280;6725;48.112;11.604;2023-02-17T12:55:39;96013.69;;;15.18;100.00
13314;BME280;6725;48.112;11.604;2023-02-17T12:58:25;96014.19;;;15.10;100.00
13314;BME280;6725;48.112;11.604;2023-02-17T13:01:09;96024.50;;;15.06;100.00
13314;BME280;6725;48.112;11.604;2023-02-17T13:03:35;96019.66;;;15.13;100.00
13314;BME280;6725;48.112;11.604;2023-02-17T13:06:24;96023.19;;;15.14;100.00
13314;BME280;6725;48.112;11.604;2023-02-17T13:08:55;96012.97;;;15.14;100.00
13314;BME280;6725;48.112;11.604;2023-02-17T13:11:30;96028.03;;;15.29;100.00
13314;BME280;6725;48.112;11.604;2023-02-17T13:14:09;96020.28;;;15.24;100.00
13314;BME280;6725;48.112;11.604;2023-02-17T13:16:44;96005.91;;;15.13;100.00
13314;BME280;6725;48.112;11.604;2023-02-17T13:19:13;96008.50;;;14.97;100.00
13314;BME280;6725;48.112;11.604;2023-02-17T13:21:51;96010.06;;;14.98;100.00
13314;BME280;6725;48.112;11.604;2023-02-17T13:24:38;96008.47;;;15.01;100.00
13314;BME280;6725;48.112;11.604;2023-02-17T13:32:41;96031.09;;;14.85;100.00
13314;BME280;6725;48.112;11.604;2023-02-17T13:37:44;96014.69;;;14.78;100.00
13314;BME280;6725;48.112;11.604;2023-02-17T13:45:26;96021.97;;;14.65;100.00
13314;BME280;6725;48.112;11.604;2023-02-17T13:51:20;96027.31;;;14.72;100.00
13314;BME280;6725;48.112;11.604;2023-02-17T13:53:49;96007.72;;;14.70;100.00
13314;BME280;6725;48.112;11.604;2023-02-17T13:56:28;96007.16;;;14.82;100.00
13314;BME280;6725;48.112;11.604;2023-02-17T13:59:09;96008.66;;;14.60;100.00
13314;BME280;6725;48.112;11.604;2023-02-17T14:01:36;95994.56;;;14.58;100.00
13314;BME280;6725;48.112;11.604;2023-02-17T14:04:16;95996.19;;;14.52;100.00
13314;BME280;6725;48.112;11.604;2023-02-17T14:06:43;96000.91;;;14.52;100.00
13314;BME280;6725;48.112;11.604;2023-02-17T14:09:19;96011.91;;;14.52;100.00
13314;BME280;6725;48.112;11.604;2023-02-17T14:11:44;95995.38;;;14.55;100.00
13314;BME280;6725;48.112;11.604;2023-02-17T14:14:10;96022.50;;;14.53;100.00
13314;BME280;6725;48.112;11.604;2023-02-17T14:16:38;96018.19;;;14.52;100.00
13314;BME280;6725;48.112;11.604;2023-02-17T14:19:14;96017.81;;;14.50;100.00
13314;BME280;6725;48.112;11.604;2023-02-17T14:21:43;96015.28;;;14.36;100.00
13314;BME280;6725;48.112;11.604;2023-02-17T14:24:41;96011.25;;;14.41;100.00
13314;BME280;6725;48.112;11.604;2023-02-17T14:27:08;96025.97;;;14.27;100.00
13314;BME280;6725;48.112;11.604;2023-02-17T14:29:43;96010.59;;;14.33;100.00
13314;BME280;6725;48.112;11.604;2023-02-17T14:34:51;96015.72;;;14.31;100.00
13314;BME280;6725;48.112;11.604;2023-02-17T14:37:19;96021.53;;;14.37;100.00
13314;BME280;6725;48.112;11.604;2023-02-17T14:39:48;96016.72;;;14.44;100.00